createdAt,value
2022-12-08T00:00:08.781Z,84.47
2022-12-08T00:02:39.911Z,84.32
2022-12-08T00:05:09.202Z,84.58
2022-12-08T00:07:38.919Z,83.97
2022-12-08T00:10:39.583Z,84.60
2022-12-08T00:12:55.494Z,84.43
2022-12-08T00:15:23.109Z,83.90
2022-12-08T00:17:50.854Z,84.06
2022-12-08T00:20:18.782Z,84.43
2022-12-08T00:22:46.400Z,84.48
2022-12-08T00:25:14.945Z,84.24
2022-12-08T00:27:43.091Z,84.42
2022-12-08T00:30:11.311Z,83.75
2022-12-08T00:32:38.933Z,84.27
2022-12-08T00:35:07.906Z,83.97
2022-12-08T00:37:35.633Z,84.05
2022-12-08T00:40:05.874Z,84.03
2022-12-08T00:42:34.276Z,83.98
2022-12-08T00:45:01.843Z,84.34
2022-12-08T00:47:30.197Z,84.61
2022-12-08T00:49:58.248Z,84.54
2022-12-08T00:52:26.249Z,84.51
2022-12-08T00:54:53.871Z,84.33
2022-12-08T00:57:22.662Z,84.81
2022-12-08T00:59:50.384Z,84.61
2022-12-08T01:02:18.048Z,84.55
2022-12-08T01:04:46.142Z,84.67
2022-12-08T01:07:13.679Z,84.60
2022-12-08T01:09:41.373Z,83.79
2022-12-08T01:12:09.741Z,84.69
2022-12-08T01:14:37.600Z,84.99
2022-12-08T01:17:05.158Z,84.92
2022-12-08T01:19:33.169Z,85.26
2022-12-08T01:22:00.836Z,85.15
2022-12-08T01:24:28.670Z,85.08
2022-12-08T01:26:56.766Z,85.39
2022-12-08T01:29:24.584Z,85.25
2022-12-08T01:31:52.279Z,85.10
2022-12-08T01:34:20.160Z,85.18
2022-12-08T01:36:47.958Z,85.03
2022-12-08T01:39:17.817Z,84.81
2022-12-08T01:41:46.752Z,84.41
2022-12-08T01:44:14.224Z,85.17
2022-12-08T01:46:43.410Z,86.76
2022-12-08T01:49:18.509Z,86.42
2022-12-08T01:52:11.098Z,87.42
2022-12-08T01:55:02.749Z,87.71
2022-12-08T01:57:56.437Z,87.55
2022-12-08T02:00:24.680Z,87.48
2022-12-08T02:02:53.909Z,87.30
2022-12-08T02:05:25.025Z,87.01
2022-12-08T02:07:53.531Z,86.65
2022-12-08T02:10:22.514Z,86.20
2022-12-08T02:12:52.102Z,85.51
2022-12-08T02:15:24.913Z,86.35
2022-12-08T02:18:16.241Z,86.83
2022-12-08T02:20:55.019Z,87.23
2022-12-08T02:23:51.920Z,87.64
2022-12-08T02:26:31.629Z,87.00
2022-12-08T02:29:34.283Z,86.72
2022-12-08T02:32:57.376Z,86.17
2022-12-08T02:35:27.866Z,85.98
2022-12-08T02:38:14.402Z,85.96
2022-12-08T02:40:59.486Z,86.58
2022-12-08T02:43:31.971Z,87.21
2022-12-08T02:46:02.852Z,87.54
2022-12-08T02:48:32.921Z,88.07
2022-12-08T02:51:00.627Z,87.51
2022-12-08T02:53:30.581Z,88.04
2022-12-08T02:56:28.839Z,87.94
2022-12-08T02:59:00.599Z,88.02
2022-12-08T03:01:31.513Z,87.60
2022-12-08T03:04:08.458Z,87.81
2022-12-08T03:06:50.573Z,87.65
2022-12-08T03:09:18.082Z,87.62
2022-12-08T03:11:56.804Z,87.21
2022-12-08T03:14:24.983Z,84.10
2022-12-08T03:16:55.581Z,83.59
2022-12-08T03:19:25.803Z,83.29
2022-12-08T03:21:56.043Z,83.09
2022-12-08T03:24:23.673Z,85.26
2022-12-08T03:26:51.276Z,86.74
2022-12-08T03:29:19.399Z,88.98
2022-12-08T03:31:52.345Z,89.09
2022-12-08T03:34:22.459Z,89.37
2022-12-08T03:36:50.097Z,88.37
2022-12-08T03:39:18.302Z,87.57
2022-12-08T03:41:47.497Z,86.81
2022-12-08T03:44:15.090Z,86.15
2022-12-08T03:46:42.708Z,86.33
2022-12-08T03:49:10.747Z,86.87
2022-12-08T03:51:38.420Z,87.38
2022-12-08T03:54:06.075Z,87.43
2022-12-08T03:56:37.064Z,87.07
2022-12-08T03:59:05.699Z,87.20
2022-12-08T04:01:33.915Z,87.52
2022-12-08T04:04:02.082Z,87.23
2022-12-08T04:06:29.693Z,86.81
2022-12-08T04:08:57.419Z,86.68
2022-12-08T04:11:25.555Z,86.92
2022-12-08T04:13:53.283Z,87.04
2022-12-08T04:16:23.328Z,87.12
2022-12-08T04:18:51.613Z,86.99
2022-12-08T04:21:19.511Z,86.88
2022-12-08T04:23:47.279Z,87.14
2022-12-08T04:26:15.688Z,86.27
2022-12-08T04:28:43.837Z,83.74
2022-12-08T04:31:11.565Z,86.05
2022-12-08T04:33:39.548Z,84.95
2022-12-08T04:36:07.912Z,83.60
2022-12-08T04:38:35.530Z,83.32
2022-12-08T04:41:03.698Z,83.05
2022-12-08T04:43:31.255Z,82.93
2022-12-08T04:45:58.885Z,82.74
2022-12-08T04:48:27.153Z,82.70
2022-12-08T04:50:54.725Z,82.57
2022-12-08T04:53:22.361Z,82.25
2022-12-08T04:55:50.414Z,82.26
2022-12-08T04:58:19.203Z,82.30
2022-12-08T05:00:47.315Z,82.25
2022-12-08T05:03:15.819Z,82.60
2022-12-08T05:05:43.910Z,82.26
2022-12-08T05:08:11.880Z,82.41
2022-12-08T05:10:39.965Z,82.82
2022-12-08T05:13:07.592Z,82.42
2022-12-08T05:15:35.268Z,82.82
2022-12-08T05:18:05.509Z,82.90
2022-12-08T05:20:33.871Z,86.08
2022-12-08T05:23:01.610Z,87.04
2022-12-08T05:25:29.667Z,87.17
2022-12-08T05:28:17.651Z,87.00
2022-12-08T05:30:45.193Z,87.31
2022-12-08T05:33:12.977Z,87.23
2022-12-08T05:35:40.587Z,86.99
2022-12-08T05:38:08.855Z,87.58
2022-12-08T05:40:39.863Z,87.60
2022-12-08T05:43:07.678Z,87.91
2022-12-08T05:45:35.593Z,88.17
2022-12-08T05:48:03.594Z,88.63
2022-12-08T05:50:31.154Z,88.48
2022-12-08T05:52:59.110Z,88.66
2022-12-08T05:55:26.803Z,88.72
2022-12-08T05:57:54.370Z,88.71
2022-12-08T06:00:22.324Z,88.77
2022-12-08T06:02:50.258Z,88.63
2022-12-08T06:05:17.982Z,88.35
2022-12-08T06:07:46.303Z,88.19
2022-12-08T06:10:14.247Z,88.34
2022-12-08T06:12:41.858Z,88.03
2022-12-08T06:15:09.821Z,88.02
2022-12-08T06:17:40.511Z,88.23
2022-12-08T06:20:08.222Z,88.31
2022-12-08T06:22:36.780Z,88.33
2022-12-08T06:25:09.546Z,88.51
2022-12-08T06:27:37.692Z,88.44
2022-12-08T06:30:07.071Z,88.71
2022-12-08T06:32:34.921Z,89.13
2022-12-08T06:35:02.629Z,88.83
2022-12-08T06:37:30.459Z,88.56
2022-12-08T06:39:58.237Z,88.73
2022-12-08T06:42:25.962Z,88.57
2022-12-08T06:44:53.836Z,88.45
2022-12-08T06:47:26.034Z,88.55
2022-12-08T06:49:54.982Z,88.54
2022-12-08T06:52:22.634Z,88.28
2022-12-08T06:54:50.388Z,87.93
2022-12-08T06:57:18.295Z,87.92
2022-12-08T06:59:45.921Z,87.89
2022-12-08T07:02:13.978Z,88.02
2022-12-08T07:04:41.923Z,87.77
2022-12-08T07:07:09.939Z,87.41
2022-12-08T07:09:37.568Z,87.34
2022-12-08T07:12:05.846Z,87.15
2022-12-08T07:14:33.540Z,87.11
2022-12-08T07:17:01.146Z,86.92
2022-12-08T07:19:29.459Z,87.03
2022-12-08T07:21:57.138Z,86.75
2022-12-08T07:24:24.732Z,86.35
2022-12-08T07:26:53.130Z,85.81
2022-12-08T07:29:26.034Z,85.89
2022-12-08T07:31:54.309Z,85.76
2022-12-08T07:34:21.942Z,85.25
2022-12-08T07:36:49.519Z,84.51
2022-12-08T07:39:17.453Z,84.89
2022-12-08T07:41:45.034Z,84.97
2022-12-08T07:44:12.810Z,84.01
2022-12-08T07:46:40.797Z,84.01
2022-12-08T07:49:08.485Z,84.07
2022-12-08T07:51:36.223Z,83.63
2022-12-08T07:54:04.150Z,83.34
2022-12-08T07:56:31.882Z,83.01
2022-12-08T07:59:01.163Z,82.96
2022-12-08T08:01:31.462Z,83.41
2022-12-08T08:04:01.677Z,83.44
2022-12-08T08:06:29.521Z,82.88
2022-12-08T08:08:57.345Z,83.35
2022-12-08T08:11:25.486Z,83.72
2022-12-08T08:13:53.306Z,83.77
2022-12-08T08:16:21.278Z,83.17
2022-12-08T08:18:50.327Z,82.60
2022-12-08T08:24:06.779Z,81.41
2022-12-08T08:26:34.640Z,81.27
2022-12-08T08:29:02.678Z,79.77
2022-12-08T08:31:30.491Z,80.00
2022-12-08T08:33:58.223Z,79.21
2022-12-08T08:36:25.884Z,79.27
2022-12-08T08:38:54.104Z,79.16
2022-12-08T08:41:22.694Z,78.89
2022-12-08T08:43:57.722Z,78.18
2022-12-08T08:46:25.711Z,77.88
2022-12-08T08:48:53.537Z,77.59
2022-12-08T08:51:21.317Z,77.78
2022-12-08T08:54:25.250Z,77.10
2022-12-08T08:56:52.958Z,78.64
2022-12-08T08:59:20.943Z,78.22
2022-12-08T09:01:48.836Z,78.06
2022-12-08T09:04:16.789Z,77.58
2022-12-08T09:06:44.694Z,76.99
2022-12-08T09:09:16.878Z,76.89
2022-12-08T09:11:45.401Z,76.64
2022-12-08T09:14:19.057Z,75.66
2022-12-08T09:16:47.310Z,76.80
2022-12-08T09:19:15.156Z,76.96
2022-12-08T09:21:44.311Z,77.16
2022-12-08T09:24:13.905Z,76.86
2022-12-08T09:26:42.735Z,77.66
2022-12-08T09:29:11.368Z,76.82
2022-12-08T09:31:39.370Z,76.47
2022-12-08T09:34:07.544Z,77.54
2022-12-08T09:36:35.355Z,77.74
2022-12-08T09:39:03.859Z,76.97
2022-12-08T09:41:48.289Z,76.87
2022-12-08T09:44:35.774Z,77.58
2022-12-08T09:47:06.698Z,77.25
2022-12-08T09:49:41.173Z,76.92
2022-12-08T09:52:50.156Z,76.77
2022-12-08T09:55:24.838Z,77.43
2022-12-08T09:58:00.977Z,77.44
2022-12-08T10:00:30.972Z,77.64
2022-12-08T10:02:59.492Z,76.63
2022-12-08T10:05:28.380Z,77.30
2022-12-08T10:08:08.554Z,77.13
2022-12-08T10:10:42.964Z,77.41
2022-12-08T10:13:38.017Z,76.24
2022-12-08T10:16:30.904Z,76.73
2022-12-08T10:19:16.042Z,76.93
2022-12-08T10:21:44.285Z,76.73
2022-12-08T10:24:34.947Z,76.39
2022-12-08T10:27:03.550Z,74.80
2022-12-08T10:29:31.191Z,74.04
2022-12-08T10:31:59.682Z,74.40
2022-12-08T10:34:27.791Z,74.80
2022-12-08T10:36:57.746Z,74.45
2022-12-08T10:39:41.839Z,75.65
2022-12-08T10:42:18.857Z,73.76
2022-12-08T10:44:59.345Z,73.80
2022-12-08T10:47:28.249Z,73.79
2022-12-08T10:50:26.884Z,73.28
2022-12-08T10:53:01.039Z,73.81
2022-12-08T10:55:29.736Z,72.90
2022-12-08T10:57:57.681Z,73.68
2022-12-08T11:00:27.052Z,74.69
2022-12-08T11:03:00.683Z,74.31
2022-12-08T11:05:33.603Z,73.59
2022-12-08T11:08:04.767Z,74.22
2022-12-08T11:10:37.907Z,73.15
2022-12-08T11:13:07.170Z,74.04
2022-12-08T11:15:38.316Z,73.74
2022-12-08T11:18:22.427Z,73.35
2022-12-08T11:21:06.518Z,74.30
2022-12-08T11:23:36.454Z,74.71
2022-12-08T11:26:28.342Z,74.85
2022-12-08T11:28:57.044Z,73.69
2022-12-08T11:31:29.601Z,73.68
2022-12-08T11:33:57.502Z,73.65
2022-12-08T11:36:27.501Z,74.22
2022-12-08T11:39:01.122Z,74.11
2022-12-08T11:41:37.697Z,74.48
2022-12-08T11:44:22.266Z,74.43
2022-12-08T11:46:55.406Z,75.38
2022-12-08T11:49:29.200Z,74.99
2022-12-08T11:52:06.081Z,75.16
2022-12-08T11:55:06.886Z,76.41
2022-12-08T11:57:34.862Z,75.10
2022-12-08T12:00:03.321Z,75.17
2022-12-08T12:02:45.882Z,76.12
2022-12-08T12:08:44.369Z,74.02
2022-12-08T12:11:33.669Z,76.21
2022-12-08T12:14:15.503Z,75.42
2022-12-08T12:17:02.244Z,75.55
2022-12-08T12:19:40.842Z,75.06
2022-12-08T12:22:15.467Z,75.15
2022-12-08T12:24:48.463Z,74.93
2022-12-08T12:27:16.476Z,75.01
2022-12-08T12:29:52.225Z,74.99
2022-12-08T12:32:23.576Z,74.83
2022-12-08T12:34:54.434Z,75.04
2022-12-08T12:37:27.768Z,74.80
2022-12-08T12:39:59.789Z,74.74
2022-12-08T12:42:48.884Z,73.74
2022-12-08T12:45:16.734Z,74.67
2022-12-08T12:47:57.167Z,73.76
2022-12-08T12:50:34.161Z,73.86
2022-12-08T12:53:12.353Z,74.56
2022-12-08T12:56:01.312Z,74.87
2022-12-08T12:58:29.408Z,73.74
2022-12-08T13:01:12.958Z,72.73
2022-12-08T13:04:05.480Z,73.57
2022-12-08T13:06:45.873Z,73.19
2022-12-08T13:09:24.646Z,73.16
2022-12-08T13:11:58.078Z,74.01
2022-12-08T13:14:38.818Z,74.39
2022-12-08T13:17:12.515Z,74.73
2022-12-08T13:19:40.795Z,75.46
2022-12-08T13:22:47.051Z,75.27
2022-12-08T13:25:39.839Z,74.17
2022-12-08T13:28:28.061Z,75.53
2022-12-08T13:31:03.182Z,76.07
2022-12-08T13:33:39.562Z,75.89
2022-12-08T13:36:21.468Z,75.76
2022-12-08T13:38:54.693Z,76.66
2022-12-08T13:41:32.717Z,77.06
2022-12-08T13:45:18.085Z,76.29
2022-12-08T13:47:31.660Z,77.86
2022-12-08T13:59:07.930Z,80.32
2022-12-08T14:01:44.573Z,79.85
2022-12-08T14:07:04.605Z,81.02
2022-12-08T14:09:37.750Z,80.88
2022-12-08T14:12:20.718Z,80.25
2022-12-08T14:15:02.958Z,80.52
2022-12-08T14:17:32.618Z,81.41
2022-12-08T14:20:31.192Z,81.65
2022-12-08T14:22:59.140Z,82.69
2022-12-08T14:25:31.444Z,82.52
2022-12-08T14:28:00.550Z,82.34
2022-12-08T14:30:31.955Z,82.73
2022-12-08T14:33:01.326Z,82.75
2022-12-08T14:35:37.484Z,82.82
2022-12-08T14:38:13.485Z,83.69
2022-12-08T14:41:01.586Z,83.72
2022-12-08T14:43:30.702Z,83.30
2022-12-08T14:46:04.402Z,84.22
2022-12-08T14:48:31.975Z,84.08
2022-12-08T14:51:19.201Z,83.74
2022-12-08T14:53:55.669Z,83.37
2022-12-08T14:56:25.059Z,84.09
2022-12-08T14:59:32.224Z,84.26
2022-12-08T15:02:17.090Z,84.85
2022-12-08T15:04:46.975Z,84.37
2022-12-08T15:07:26.425Z,84.30
2022-12-08T15:10:27.727Z,84.38
2022-12-08T15:13:20.590Z,83.95
2022-12-08T15:15:57.721Z,84.40
2022-12-08T15:18:34.763Z,84.28
2022-12-08T15:21:04.544Z,84.15
2022-12-08T15:23:44.752Z,84.35
2022-12-08T15:26:23.452Z,84.48
2022-12-08T15:28:51.911Z,84.77
2022-12-08T15:31:19.706Z,84.48
2022-12-08T15:33:48.276Z,84.47
2022-12-08T15:36:16.253Z,84.41
2022-12-08T15:38:43.858Z,84.49
2022-12-08T15:41:15.356Z,85.02
2022-12-08T15:43:43.359Z,84.38
2022-12-08T15:46:11.896Z,84.37
2022-12-08T15:48:39.664Z,84.81
2022-12-08T15:51:08.914Z,84.61
2022-12-08T15:53:36.483Z,84.73
2022-12-08T15:58:57.391Z,84.12
2022-12-08T16:01:26.729Z,83.86
2022-12-08T16:04:47.761Z,83.29
2022-12-08T16:09:50.347Z,81.59
2022-12-08T16:12:35.478Z,81.06
2022-12-08T16:18:03.619Z,79.37
2022-12-08T16:21:05.437Z,81.39
2022-12-08T16:23:41.733Z,82.55
2022-12-08T16:26:44.151Z,83.02
2022-12-08T16:29:05.639Z,83.19
2022-12-08T16:31:33.796Z,82.76
2022-12-08T16:34:01.605Z,82.37
2022-12-08T16:36:29.858Z,82.13
2022-12-08T16:38:57.756Z,81.89
2022-12-08T16:41:25.732Z,81.80
2022-12-08T16:43:53.332Z,82.00
2022-12-08T16:46:21.638Z,82.12
2022-12-08T16:48:51.708Z,81.71
2022-12-08T16:51:26.524Z,81.13
2022-12-08T16:53:55.555Z,81.63
2022-12-08T16:56:27.514Z,81.04
2022-12-08T16:58:56.823Z,80.69
2022-12-08T17:01:24.565Z,80.58
2022-12-08T17:04:22.571Z,80.97
2022-12-08T17:06:41.533Z,80.88
2022-12-08T17:09:09.234Z,81.25
2022-12-08T17:11:42.873Z,80.58
2022-12-08T17:14:12.891Z,80.20
2022-12-08T17:16:41.227Z,78.83
2022-12-08T17:19:09.620Z,78.42
2022-12-08T17:21:37.833Z,77.46
2022-12-08T17:24:09.674Z,77.24
2022-12-08T17:26:39.938Z,77.94
2022-12-08T17:29:08.028Z,77.82
2022-12-08T17:31:35.765Z,78.53
2022-12-08T17:34:05.834Z,80.09
2022-12-08T17:36:33.559Z,80.25
2022-12-08T17:39:03.714Z,80.15
2022-12-08T17:41:35.545Z,80.53
2022-12-08T17:44:03.393Z,81.03
2022-12-08T17:46:31.273Z,81.25
2022-12-08T17:48:59.186Z,81.73
2022-12-08T17:51:27.242Z,82.49
2022-12-08T17:53:55.149Z,82.12
2022-12-08T17:56:25.050Z,82.47
2022-12-08T17:58:54.953Z,83.16
2022-12-08T18:01:24.131Z,82.60
2022-12-08T18:03:52.426Z,82.78
2022-12-08T18:06:20.529Z,83.17
2022-12-08T18:08:48.191Z,82.66
2022-12-08T18:11:18.922Z,82.23
2022-12-08T18:13:47.792Z,81.43
2022-12-08T18:16:16.251Z,82.37
2022-12-08T18:18:44.290Z,82.58
2022-12-08T18:21:12.142Z,81.90
2022-12-08T18:23:41.540Z,81.07
2022-12-08T18:26:11.769Z,81.04
2022-12-08T18:28:39.536Z,81.82
2022-12-08T18:31:09.188Z,81.23
2022-12-08T18:33:37.814Z,81.97
2022-12-08T18:36:08.357Z,81.59
2022-12-08T18:38:36.870Z,81.49
2022-12-08T18:41:10.535Z,81.41
2022-12-08T18:43:38.333Z,81.37
2022-12-08T18:46:09.310Z,80.81
2022-12-08T18:48:39.251Z,82.13
2022-12-08T18:51:11.403Z,82.61
2022-12-08T18:53:39.661Z,83.06
2022-12-08T18:56:08.237Z,83.12
2022-12-08T18:58:36.942Z,83.92
2022-12-08T19:01:05.081Z,84.31
2022-12-08T19:03:33.916Z,83.44
2022-12-08T19:06:04.931Z,83.69
2022-12-08T19:08:33.495Z,84.71
2022-12-08T19:11:01.464Z,84.49
2022-12-08T19:13:29.991Z,85.59
2022-12-08T19:15:58.189Z,86.61
2022-12-08T19:18:26.088Z,86.83
2022-12-08T19:20:56.195Z,87.10
2022-12-08T19:23:24.094Z,87.32
2022-12-08T19:25:52.250Z,87.22
2022-12-08T19:28:20.316Z,87.65
2022-12-08T19:30:48.429Z,87.46
2022-12-08T19:33:16.587Z,87.08
2022-12-08T19:35:49.055Z,87.44
2022-12-08T19:38:20.464Z,88.08
2022-12-08T19:40:48.302Z,87.85
2022-12-08T19:43:17.738Z,87.90
2022-12-08T19:45:46.393Z,87.20
2022-12-08T19:48:14.466Z,87.74
2022-12-08T19:50:42.562Z,87.28
2022-12-08T19:53:13.133Z,87.28
2022-12-08T19:55:42.275Z,86.66
2022-12-08T19:58:10.673Z,87.07
2022-12-08T20:00:42.577Z,87.73
2022-12-08T20:03:15.035Z,88.48
2022-12-08T20:05:43.514Z,88.20
2022-12-08T20:08:12.101Z,87.92
2022-12-08T20:10:42.746Z,87.51
2022-12-08T20:13:11.819Z,87.71
2022-12-08T20:15:40.675Z,87.56
2022-12-08T20:18:10.655Z,87.51
2022-12-08T20:20:39.804Z,88.14
2022-12-08T20:23:08.318Z,88.15
2022-12-08T20:25:40.898Z,87.26
2022-12-08T20:28:09.485Z,88.17
2022-12-08T20:30:41.441Z,88.79
2022-12-08T20:33:13.261Z,88.11
2022-12-08T20:35:41.113Z,87.37
2022-12-08T20:38:09.941Z,87.12
2022-12-08T20:40:42.224Z,87.43
2022-12-08T20:43:10.559Z,87.97
2022-12-08T20:45:38.470Z,87.31
2022-12-08T20:48:06.476Z,87.92
2022-12-08T20:50:34.704Z,87.88
2022-12-08T20:53:02.549Z,87.83
2022-12-08T20:55:30.632Z,87.96
2022-12-08T20:57:58.841Z,87.12
2022-12-08T21:00:26.923Z,87.38
2022-12-08T21:02:56.760Z,87.83
2022-12-08T21:05:25.709Z,88.07
2022-12-08T21:07:53.678Z,86.34
2022-12-08T21:10:21.603Z,84.26
2022-12-08T21:12:49.524Z,83.68
2022-12-08T21:15:17.327Z,83.47
2022-12-08T21:17:45.258Z,83.33
2022-12-08T21:20:13.346Z,83.17
2022-12-08T21:22:40.997Z,82.97
2022-12-08T21:25:09.180Z,83.16
2022-12-08T21:27:37.785Z,83.46
2022-12-08T21:30:08.243Z,81.83
2022-12-08T21:32:38.233Z,81.89
2022-12-08T21:35:06.839Z,81.45
2022-12-08T21:37:34.501Z,81.67
2022-12-08T21:40:02.560Z,83.99
2022-12-08T21:42:34.081Z,85.73
2022-12-08T21:45:02.428Z,85.55
2022-12-08T21:47:31.212Z,87.13
2022-12-08T21:49:59.122Z,85.94
2022-12-08T21:52:26.951Z,87.09
2022-12-08T21:54:55.160Z,85.73
2022-12-08T21:57:23.070Z,84.09
2022-12-08T21:59:50.932Z,83.41
2022-12-08T22:02:22.337Z,83.59
2022-12-08T22:04:51.174Z,83.06
2022-12-08T22:07:21.093Z,82.56
2022-12-08T22:09:49.179Z,82.68
2022-12-08T22:12:17.578Z,82.95
2022-12-08T22:14:45.376Z,82.93
2022-12-08T22:17:13.037Z,83.20
2022-12-08T22:19:41.393Z,83.51
2022-12-08T22:22:09.117Z,82.05
2022-12-08T22:24:36.813Z,82.46
2022-12-08T22:27:04.785Z,81.97
2022-12-08T22:29:32.369Z,81.55
2022-12-08T22:32:00.213Z,81.52
2022-12-08T22:34:28.360Z,81.81
2022-12-08T22:36:56.122Z,81.88
2022-12-08T22:39:23.983Z,82.62
2022-12-08T22:41:52.012Z,83.02
2022-12-08T22:44:23.670Z,82.45
2022-12-08T22:46:51.363Z,82.51
2022-12-08T22:49:19.318Z,82.40
2022-12-08T22:51:46.884Z,82.71
2022-12-08T22:54:14.415Z,82.83
2022-12-08T22:56:42.345Z,83.07
2022-12-08T22:59:10.153Z,83.54
2022-12-08T23:01:37.868Z,82.79
2022-12-08T23:04:05.979Z,83.03
2022-12-08T23:06:33.900Z,82.39
2022-12-08T23:09:02.446Z,83.07
2022-12-08T23:11:31.350Z,82.52
2022-12-08T23:13:59.852Z,82.15
2022-12-08T23:16:28.306Z,82.49
2022-12-08T23:18:56.707Z,81.90
2022-12-08T23:21:24.380Z,82.55
2022-12-08T23:23:52.660Z,82.19
2022-12-08T23:26:26.196Z,82.47
2022-12-08T23:28:54.520Z,82.03
2022-12-08T23:31:23.152Z,82.55
2022-12-08T23:33:51.562Z,82.54
2022-12-08T23:36:20.439Z,82.80
2022-12-08T23:38:49.203Z,81.94
2022-12-08T23:41:17.822Z,81.42
2022-12-08T23:43:50.016Z,82.00
2022-12-08T23:46:21.313Z,82.50
2022-12-08T23:48:50.526Z,81.92
2022-12-08T23:51:19.083Z,81.67
2022-12-08T23:53:46.945Z,81.80
2022-12-08T23:56:16.887Z,81.85
2022-12-08T23:58:45.186Z,81.79
